Time;durP1;ratioP1;P1;durP2;ratioP2;P2;SDS_P1;SDS_P2;PMS_P1;PMS_P2;Temp;Humidity;BMP_temperature;BMP_pressure;BME280_temperature;BME280_humidity;BME280_pressure;Samples;Min_cycle;Max_cycle;Signal;HPM_P1;HPM_P2
2021/03/08 00:00:11;;;;;;;11.35;2.63;;;;;;;3.10;97.75;101521.06;4964249;28;20035;-74
2021/03/08 00:02:36;;;;;;;11.98;2.97;;;;;;;2.81;96.22;101512.38;4953587;29;20400;-73
2021/03/08 00:05:01;;;;;;;10.63;3.05;;;;;;;2.58;97.95;101517.34;4950564;28;20041;-75
2021/03/08 00:07:27;;;;;;;9.65;2.78;;;;;;;2.56;97.99;101519.50;4960069;28;20030;-75
2021/03/08 00:09:52;;;;;;;8.48;2.78;;;;;;;2.49;98.53;101519.03;4951338;28;20031;-75
2021/03/08 00:12:18;;;;;;;9.82;2.55;;;;;;;2.37;98.17;101517.78;4952314;28;20031;-74
2021/03/08 00:14:43;;;;;;;15.25;2.60;;;;;;;2.33;98.61;101516.75;4957740;28;20042;-74
2021/03/08 00:17:08;;;;;;;11.35;2.50;;;;;;;2.20;98.29;101531.50;4957925;28;20041;-75
2021/03/08 00:19:34;;;;;;;9.55;2.70;;;;;;;2.19;98.77;101529.13;4955173;28;20039;-75
2021/03/08 00:22:00;;;;;;;11.00;2.78;;;;;;;2.14;99.13;101529.94;4952949;28;20039;-75
2021/03/08 00:24:25;;;;;;;14.93;2.53;;;;;;;2.15;99.11;101536.06;4952704;29;20031;-73
2021/03/08 00:26:51;;;;;;;14.45;2.97;;;;;;;1.99;99.94;101542.53;4951977;28;20035;-75
2021/03/08 00:29:16;;;;;;;8.13;2.80;;;;;;;1.98;99.47;101547.03;4954578;28;20043;-73
2021/03/08 00:31:42;;;;;;;8.27;2.38;;;;;;;1.89;100.00;101542.56;4953098;29;20042;-74
2021/03/08 00:34:07;;;;;;;8.88;2.63;;;;;;;1.99;99.99;101548.63;4953547;28;20035;-74
2021/03/08 00:36:32;;;;;;;7.70;2.70;;;;;;;1.86;100.00;101549.22;4948803;28;20035;-75
2021/03/08 00:38:58;;;;;;;8.38;2.55;;;;;;;1.88;100.00;101543.66;4965905;28;20031;-75
2021/03/08 00:41:23;;;;;;;12.85;2.85;;;;;;;1.86;99.57;101545.78;4956226;28;20042;-75
2021/03/08 00:43:48;;;;;;;11.07;2.53;;;;;;;1.80;99.86;101545.81;4953382;28;20460;-75
2021/03/08 00:46:14;;;;;;;8.38;2.30;;;;;;;1.72;100.00;101548.25;4954946;28;20042;-74
2021/03/08 00:48:39;;;;;;;6.57;2.72;;;;;;;1.72;100.00;101549.03;4952070;28;20121;-74
2021/03/08 00:51:05;;;;;;;9.10;2.40;;;;;;;1.69;100.00;101549.59;4949655;28;20031;-74
2021/03/08 00:53:30;;;;;;;16.45;2.90;;;;;;;1.68;100.00;101550.63;4958593;28;20669;-75
2021/03/08 00:55:56;;;;;;;8.70;2.35;;;;;;;1.61;100.00;101552.00;4948974;28;20038;-75
2021/03/08 00:58:22;;;;;;;9.82;2.40;;;;;;;1.53;100.00;101550.72;4957449;28;20031;-74
2021/03/08 01:00:48;;;;;;;8.32;2.42;;;;;;;1.50;100.00;101553.94;4950599;29;20516;-75
2021/03/08 01:03:13;;;;;;;13.23;2.65;;;;;;;1.66;100.00;101547.50;4953403;28;20031;-74
2021/03/08 01:05:44;;;;;;;17.53;3.13;;;;;;;1.62;100.00;101545.66;4949851;29;20503;-74
2021/03/08 01:08:18;;;;;;;10.18;2.25;;;;;;;1.68;100.00;101547.97;4953703;28;20329;-74
2021/03/08 01:10:44;;;;;;;13.02;2.25;;;;;;;1.52;100.00;101545.69;4951344;28;20527;-75
2021/03/08 01:13:21;;;;;;;10.77;2.55;;;;;;;1.43;100.00;101549.97;4965437;28;20031;-75
2021/03/08 01:15:52;;;;;;;12.23;3.00;;;;;;;1.32;100.00;101543.09;4951820;29;20031;-74
2021/03/08 01:18:19;;;;;;;10.52;2.90;;;;;;;1.42;100.00;101548.38;4950007;28;20034;-75
2021/03/08 01:20:45;;;;;;;7.18;1.77;;;;;;;1.40;100.00;101553.16;4960659;28;20078;-74
2021/03/08 01:23:14;;;;;;;7.00;2.55;;;;;;;1.43;100.00;101550.75;4952820;29;20024;-74
2021/03/08 01:25:40;;;;;;;8.88;2.58;;;;;;;1.53;99.92;101550.72;4952305;28;20488;-75
2021/03/08 01:28:07;;;;;;;5.88;2.30;;;;;;;1.47;99.56;101549.16;4951345;28;20062;-75
2021/03/08 01:30:36;;;;;;;9.52;2.50;;;;;;;1.47;99.04;101545.72;4958925;28;20126;-74
2021/03/08 01:33:01;;;;;;;9.52;2.55;;;;;;;1.46;99.26;101546.78;4953603;29;20400;-75
2021/03/08 01:35:27;;;;;;;10.45;2.80;;;;;;;1.36;98.39;101536.19;4950851;29;20031;-74
2021/03/08 01:37:52;;;;;;;7.68;2.38;;;;;;;1.29;98.15;101544.47;4959103;28;20114;-74
2021/03/08 01:40:20;;;;;;;5.95;2.35;;;;;;;1.32;98.40;101541.25;4969931;28;20054;-75
2021/03/08 01:42:46;;;;;;;8.52;2.40;;;;;;;1.28;98.24;101542.09;4952297;29;20436;-75
2021/03/08 01:45:14;;;;;;;7.78;2.25;;;;;;;1.21;98.17;101537.06;4950135;28;20062;-74
2021/03/08 01:47:44;;;;;;;8.85;2.78;;;;;;;1.14;97.84;101541.06;4954129;28;20039;-75
2021/03/08 01:50:14;;;;;;;6.88;2.22;;;;;;;1.19;98.89;101544.47;4951039;28;20460;-75
2021/03/08 01:52:40;;;;;;;5.72;2.05;;;;;;;1.09;98.48;101543.72;4951143;28;20039;-74
2021/03/08 01:55:07;;;;;;;7.38;2.55;;;;;;;1.06;98.24;101544.25;4951512;28;20094;-75
2021/03/08 01:57:33;;;;;;;7.25;2.05;;;;;;;1.03;98.53;101539.50;4951249;28;20066;-74
2021/03/08 01:59:58;;;;;;;11.75;2.50;;;;;;;0.87;98.99;101550.13;4957097;28;20444;-75
2021/03/08 02:02:24;;;;;;;10.13;2.53;;;;;;;0.85;99.07;101546.94;4952589;28;20034;-74
2021/03/08 02:04:49;;;;;;;8.35;2.45;;;;;;;0.93;99.21;101546.41;4954633;28;20058;-75
2021/03/08 02:07:15;;;;;;;7.65;2.60;;;;;;;0.87;98.34;101547.47;4952178;29;20042;-74
2021/03/08 02:09:41;;;;;;;10.18;2.58;;;;;;;0.90;98.75;101543.50;4948743;28;20035;-75
2021/03/08 02:12:28;;;;;;;8.23;2.53;;;;;;;0.95;98.72;101555.97;4957279;28;20031;-74
2021/03/08 02:15:07;;;;;;;4.22;2.20;;;;;;;0.85;98.79;101546.16;4957960;28;20039;-75
2021/03/08 02:17:38;;;;;;;7.63;2.40;;;;;;;0.77;98.42;101546.72;4949007;29;20023;-74
2021/03/08 02:20:10;;;;;;;5.78;2.10;;;;;;;0.79;98.94;101555.19;4954311;28;20031;-75
2021/03/08 02:23:13;;;;;;;7.80;1.80;;;;;;;0.78;98.77;101548.28;4955195;28;20030;-74
2021/03/08 02:26:00;;;;;;;5.97;1.65;;;;;;;0.77;98.47;101552.00;4956304;28;20050;-75
2021/03/08 02:29:22;;;;;;;7.07;1.80;;;;;;;0.90;97.45;101551.44;4955416;29;20035;-74
2021/03/08 02:31:51;;;;;;;9.63;2.10;;;;;;;0.73;97.52;101556.25;4935685;29;20116;-75
2021/03/08 02:34:23;;;;;;;9.70;1.80;;;;;;;0.77;97.48;101559.97;4932946;29;20040;-75
2021/03/08 02:36:56;;;;;;;5.90;1.63;;;;;;;0.85;97.66;101559.41;4934241;29;20090;-75
2021/03/08 02:39:32;;;;;;;3.95;1.58;;;;;;;0.79;96.42;101555.19;4916733;29;20059;-74
2021/03/08 02:42:00;;;;;;;3.67;1.48;;;;;;;0.60;97.03;101562.88;4939636;28;20040;-74
2021/03/08 02:44:33;;;;;;;3.70;1.83;;;;;;;0.45;98.00;101557.56;4933767;29;20043;-74
2021/03/08 02:46:59;;;;;;;4.88;1.73;;;;;;;0.48;98.06;101559.72;4937291;29;20130;-74
2021/03/08 02:49:28;;;;;;;9.32;2.13;;;;;;;0.57;97.74;101560.75;4938721;29;20437;-74
2021/03/08 02:51:59;;;;;;;7.43;1.80;;;;;;;0.62;97.74;101565.28;4934079;29;20111;-75
2021/03/08 02:54:30;;;;;;;7.50;1.83;;;;;;;0.41;97.16;101571.59;4933725;29;20052;-74
2021/03/08 02:57:03;;;;;;;3.97;1.67;;;;;;;0.29;97.86;101571.09;4935147;29;20562;-75
2021/03/08 02:59:30;;;;;;;5.10;1.63;;;;;;;0.36;98.36;101571.59;4937632;29;20082;-74
2021/03/08 03:01:57;;;;;;;7.28;1.80;;;;;;;0.34;98.04;101571.88;4938716;29;20062;-74
2021/03/08 03:04:24;;;;;;;4.43;1.73;;;;;;;0.55;97.02;101564.72;4950095;28;20428;-74
2021/03/08 03:06:51;;;;;;;9.35;1.98;;;;;;;0.58;96.15;101569.50;4950738;28;20031;-74
2021/03/08 03:09:19;;;;;;;3.22;1.60;;;;;;;0.42;96.49;101574.00;4958038;28;20043;-73
2021/03/08 03:11:53;;;;;;;4.18;1.70;;;;;;;0.48;96.60;101569.50;4955315;28;20416;-74
2021/03/08 03:14:20;;;;;;;11.40;2.35;;;;;;;0.49;96.48;101569.22;4955410;28;20038;-75
2021/03/08 03:16:50;;;;;;;3.88;1.55;;;;;;;0.34;96.50;101574.53;4951867;28;20027;-75
2021/03/08 03:19:19;;;;;;;4.20;1.60;;;;;;;0.30;97.67;101583.25;4949258;28;20373;-74
2021/03/08 03:21:45;;;;;;;7.32;1.65;;;;;;;0.11;97.34;101587.47;4959442;28;20027;-73
2021/03/08 03:24:11;;;;;;;3.70;1.50;;;;;;;0.12;97.68;101581.91;4956445;28;20110;-74
2021/03/08 03:26:38;;;;;;;9.23;2.05;;;;;;;0.17;97.78;101578.47;4962289;28;20479;-74
2021/03/08 03:29:05;;;;;;;7.80;1.58;;;;;;;0.15;97.43;101585.88;4954909;29;20047;-75
2021/03/08 03:31:36;;;;;;;6.20;2.00;;;;;;;0.21;96.88;101584.84;4953690;28;20043;-75
2021/03/08 03:34:03;;;;;;;3.97;1.80;;;;;;;0.18;96.68;101585.34;4951708;28;20039;-74
2021/03/08 03:36:34;;;;;;;5.88;1.70;;;;;;;0.14;96.58;101587.72;4962960;28;20633;-74
2021/03/08 03:39:01;;;;;;;6.15;1.73;;;;;;;-0.06;97.58;101595.63;4952706;28;20050;-75
2021/03/08 03:41:27;;;;;;;5.63;1.75;;;;;;;0.05;97.48;101591.97;4958828;28;20034;-74
2021/03/08 03:43:52;;;;;;;5.55;1.95;;;;;;;0.11;96.93;101595.41;4959207;28;20023;-74
2021/03/08 03:46:17;;;;;;;7.40;1.88;;;;;;;0.08;96.30;101596.72;4956342;28;20040;-74
2021/03/08 03:48:43;;;;;;;3.78;1.65;;;;;;;-0.04;97.04;101591.66;4955078;28;20496;-75
2021/03/08 03:51:08;;;;;;;5.35;1.65;;;;;;;-0.05;97.11;101589.28;4953936;28;20063;-74
2021/03/08 03:53:34;;;;;;;5.45;1.73;;;;;;;-0.03;96.60;101603.84;4959176;28;20043;-75
2021/03/08 03:55:59;;;;;;;4.10;1.60;;;;;;;0.04;96.67;101608.88;4949582;28;20452;-74
2021/03/08 03:58:24;;;;;;;4.68;1.88;;;;;;;-0.03;96.03;101613.63;4963817;28;20066;-74
2021/03/08 04:00:57;;;;;;;5.47;1.70;;;;;;;-0.08;96.73;101609.09;4960407;28;20039;-74
2021/03/08 04:03:58;;;;;;;4.15;1.63;;;;;;;-0.09;96.29;101615.47;4953929;28;20102;-74
2021/03/08 04:06:34;;;;;;;8.90;1.77;;;;;;;-0.17;96.51;101621.25;4951732;29;20492;-74
2021/03/08 04:09:01;;;;;;;4.90;1.70;;;;;;;-0.17;96.73;101623.91;4957442;28;20114;-74
2021/03/08 04:11:31;;;;;;;6.82;1.95;;;;;;;-0.09;97.00;101630.53;4958141;28;20559;-74
2021/03/08 04:13:59;;;;;;;5.93;2.17;;;;;;;-0.06;96.56;101622.09;4950584;28;20035;-74
2021/03/08 04:16:25;;;;;;;3.30;1.95;;;;;;;-0.16;96.29;101619.41;4950174;28;20066;-74
2021/03/08 04:18:52;;;;;;;4.25;2.17;;;;;;;-0.26;96.85;101628.13;4952007;28;20035;-75
2021/03/08 04:21:19;;;;;;;9.52;2.38;;;;;;;-0.28;97.03;101622.28;4949052;29;20039;-73
2021/03/08 04:23:46;;;;;;;5.25;2.28;;;;;;;-0.26;96.94;101622.81;4952596;28;20051;-74
2021/03/08 04:26:12;;;;;;;6.80;2.33;;;;;;;-0.34;96.41;101633.91;4951160;28;20478;-74
2021/03/08 04:28:40;;;;;;;5.90;2.45;;;;;;;-0.33;96.98;101632.81;4950915;29;20050;-73
2021/03/08 04:31:06;;;;;;;3.75;2.00;;;;;;;-0.34;96.87;101628.59;4942298;29;20592;-74
2021/03/08 04:33:32;;;;;;;5.72;1.98;;;;;;;-0.46;96.97;101638.59;4950411;28;20071;-74
2021/03/08 04:35:59;;;;;;;5.72;1.90;;;;;;;-0.38;97.05;101646.03;4962555;28;20046;-74
2021/03/08 04:38:26;;;;;;;5.40;1.95;;;;;;;-0.29;96.82;101644.50;4951512;28;20077;-74
2021/03/08 04:40:53;;;;;;;6.68;2.15;;;;;;;-0.35;96.38;101647.38;4959707;28;20050;-74
2021/03/08 04:43:18;;;;;;;6.55;2.20;;;;;;;-0.31;96.42;101645.81;4950397;28;20106;-74
2021/03/08 04:45:44;;;;;;;10.68;2.20;;;;;;;-0.31;96.35;101638.66;4953228;28;20177;-74
2021/03/08 04:48:10;;;;;;;6.80;2.50;;;;;;;-0.38;95.97;101638.09;4960335;28;20472;-74
2021/03/08 04:50:36;;;;;;;10.48;2.25;;;;;;;-0.32;96.67;101642.38;4964989;28;20035;-73
2021/03/08 04:53:03;;;;;;;4.47;2.60;;;;;;;-0.33;95.75;101651.34;4964603;28;20069;-74
2021/03/08 04:55:31;;;;;;;10.23;2.83;;;;;;;-0.37;96.34;101638.91;4952885;28;20039;-74
2021/03/08 04:57:56;;;;;;;11.68;2.28;;;;;;;-0.51;96.22;101645.69;4964780;28;20054;-74
2021/03/08 05:00:22;;;;;;;8.80;2.60;;;;;;;-0.47;97.01;101641.50;4943363;28;20031;-73
2021/03/08 05:02:49;;;;;;;4.63;2.05;;;;;;;-0.39;97.11;101646.31;4938756;28;20370;-74
2021/03/08 05:05:20;;;;;;;3.75;1.92;;;;;;;-0.35;96.67;101656.09;4940874;28;20035;-74
2021/03/08 05:07:47;;;;;;;4.65;2.00;;;;;;;-0.50;96.58;101663.97;4933608;28;20317;-75
2021/03/08 05:10:17;;;;;;;4.88;2.10;;;;;;;-0.66;97.40;101653.56;4938143;28;20032;-74
2021/03/08 05:12:42;;;;;;;7.38;1.70;;;;;;;-0.67;97.82;101658.03;4950362;28;20522;-74
2021/03/08 05:15:11;;;;;;;8.55;1.92;;;;;;;-0.62;97.48;101668.63;4949573;28;20035;-75
2021/03/08 05:17:40;;;;;;;5.95;1.92;;;;;;;-0.68;97.58;101656.47;4955160;28;20039;-74
2021/03/08 05:20:13;;;;;;;4.25;1.80;;;;;;;-0.66;97.64;101666.78;4953907;28;20027;-75
2021/03/08 05:22:41;;;;;;;5.28;1.73;;;;;;;-0.58;97.53;101669.72;4950635;28;20035;-74
2021/03/08 05:25:07;;;;;;;2.42;1.50;;;;;;;-0.56;97.75;101669.50;4955986;28;20042;-75
2021/03/08 05:27:34;;;;;;;5.18;1.90;;;;;;;-0.52;96.97;101660.78;4943390;28;20525;-75
2021/03/08 05:30:01;;;;;;;6.47;2.00;;;;;;;-0.60;97.23;101668.41;4936595;28;20032;-75
2021/03/08 05:32:34;;;;;;;4.28;2.08;;;;;;;-0.60;97.67;101668.41;4941682;28;20039;-74
2021/03/08 05:35:00;;;;;;;12.63;2.35;;;;;;;-0.51;96.37;101672.97;4939517;28;20529;-74
2021/03/08 05:37:27;;;;;;;3.72;2.05;;;;;;;-0.69;97.10;101673.34;4940551;28;20067;-74
2021/03/08 05:39:52;;;;;;;4.72;1.80;;;;;;;-0.47;96.80;101674.03;4937584;28;20490;-74
2021/03/08 05:42:19;;;;;;;9.45;2.42;;;;;;;-0.61;96.65;101672.88;4958752;28;20043;-75
2021/03/08 05:44:50;;;;;;;5.85;2.55;;;;;;;-0.53;96.93;101677.69;4939216;29;20139;-75
2021/03/08 05:47:24;;;;;;;4.65;1.83;;;;;;;-0.56;96.21;101683.47;4940529;28;20031;-74
2021/03/08 05:50:02;;;;;;;5.60;2.50;;;;;;;-0.57;96.87;101684.56;4942716;29;20043;-74
2021/03/08 05:52:49;;;;;;;5.18;2.28;;;;;;;-0.57;96.90;101683.75;4938226;29;20106;-75
2021/03/08 05:55:52;;;;;;;6.43;2.22;;;;;;;-0.67;96.92;101688.97;4938049;28;20443;-74
2021/03/08 05:58:28;;;;;;;4.65;2.08;;;;;;;-0.87;97.84;101686.19;4940519;28;20073;-74
2021/03/08 06:01:18;;;;;;;4.90;2.10;;;;;;;-0.82;97.70;101700.25;4936107;28;20143;-74
2021/03/08 06:04:19;;;;;;;3.05;2.00;;;;;;;-0.83;98.09;101697.84;4941264;28;20039;-74
2021/03/08 06:07:35;;;;;;;4.22;2.15;;;;;;;-0.83;98.27;101706.56;4942787;28;20103;-74
2021/03/08 06:10:09;;;;;;;7.65;2.38;;;;;;;-0.87;98.55;101715.25;4938897;28;20031;-75
2021/03/08 06:12:36;;;;;;;7.35;1.85;;;;;;;-0.79;98.71;101704.22;4942217;28;20035;-74
2021/03/08 06:15:14;;;;;;;7.43;2.03;;;;;;;-0.72;98.74;101716.19;4940698;28;20431;-75
2021/03/08 06:17:40;;;;;;;5.80;2.08;;;;;;;-0.63;98.75;101713.84;4940280;29;20046;-75
2021/03/08 06:20:09;;;;;;;6.78;1.80;;;;;;;-0.62;98.48;101720.75;4953532;28;20424;-75
2021/03/08 06:22:38;;;;;;;4.88;2.53;;;;;;;-0.73;98.64;101721.69;4954874;28;20130;-74
2021/03/08 06:25:04;;;;;;;5.70;1.80;;;;;;;-0.75;98.74;101732.53;4947492;28;20158;-75
2021/03/08 06:27:31;;;;;;;6.07;2.22;;;;;;;-0.64;98.93;101736.06;4948719;28;20480;-74
2021/03/08 06:29:57;;;;;;;4.07;1.75;;;;;;;-0.65;98.62;101737.09;4960449;28;20035;-74
2021/03/08 06:32:23;;;;;;;2.78;2.00;;;;;;;-0.57;98.51;101742.72;4948379;28;20031;-74
2021/03/08 06:34:49;;;;;;;8.18;2.10;;;;;;;-0.69;98.46;101750.03;4951660;28;20039;-75
2021/03/08 06:37:14;;;;;;;6.97;2.05;;;;;;;-0.63;98.91;101754.31;4952470;28;20038;-74
2021/03/08 06:39:42;;;;;;;9.50;2.58;;;;;;;-0.72;99.61;101758.47;4952675;28;20122;-75
2021/03/08 06:42:08;;;;;;;2.42;1.98;;;;;;;-0.75;99.55;101764.25;4942186;29;20035;-75
2021/03/08 06:44:34;;;;;;;2.53;2.10;;;;;;;-0.75;100.00;101758.16;4936033;28;20085;-75
2021/03/08 06:47:01;;;;;;;6.25;2.20;;;;;;;-0.66;100.00;101759.31;4946063;28;20027;-74
2021/03/08 06:49:26;;;;;;;6.43;2.20;;;;;;;-0.62;100.00;101757.75;4948470;28;20211;-75
2021/03/08 06:52:04;;;;;;;5.20;2.10;;;;;;;-0.65;100.00;101761.69;4945251;28;20070;-74
2021/03/08 06:54:31;;;;;;;5.30;2.60;;;;;;;-0.48;100.00;101772.94;4944218;28;20043;-75
2021/03/08 06:56:56;;;;;;;7.53;2.20;;;;;;;-0.33;100.00;101759.81;4945959;28;20086;-74
2021/03/08 06:59:22;;;;;;;6.80;2.40;;;;;;;-0.25;100.00;101771.75;4948289;28;20023;-75
2021/03/08 07:01:50;;;;;;;5.75;2.90;;;;;;;-0.18;100.00;101782.94;4953324;28;20081;-75
2021/03/08 07:04:19;;;;;;;8.07;2.35;;;;;;;-0.05;99.56;101783.28;4953707;28;20031;-76
2021/03/08 07:07:26;;;;;;;5.88;2.53;;;;;;;-0.01;98.78;101778.28;4949849;28;20085;-74
2021/03/08 07:09:53;;;;;;;4.57;2.00;;;;;;;0.04;98.83;101791.53;4910883;29;20044;-75
2021/03/08 07:12:20;;;;;;;6.43;2.08;;;;;;;0.03;98.80;101792.59;4912478;29;20048;-74
2021/03/08 07:14:59;;;;;;;3.10;1.90;;;;;;;0.07;99.23;101795.50;4913241;29;20052;-75
2021/03/08 07:17:37;;;;;;;4.05;2.10;;;;;;;0.12;99.26;101790.25;4908866;29;20032;-75
2021/03/08 07:20:05;;;;;;;5.53;2.35;;;;;;;0.27;99.29;101793.75;4912473;29;20097;-75
2021/03/08 07:22:47;;;;;;;9.27;2.70;;;;;;;0.30;98.88;101787.16;4911595;29;20043;-75
2021/03/08 07:25:23;;;;;;;4.70;2.03;;;;;;;0.31;99.47;101786.13;4914171;29;20127;-74
2021/03/08 07:27:58;;;;;;;4.63;2.15;;;;;;;0.45;99.65;101800.47;4913516;29;20071;-75
2021/03/08 07:30:39;;;;;;;4.82;2.13;;;;;;;0.55;98.82;101801.31;4913264;29;20549;-75
2021/03/08 07:33:11;;;;;;;;;;;;;;;0.62;98.99;101793.13;4914284;29;20513;-75
2021/03/08 07:35:46;;;;;;;3.90;2.13;;;;;;;0.63;98.40;101802.66;4907606;29;19915;-75
2021/03/08 07:38:27;;;;;;;5.20;2.38;;;;;;;0.89;98.32;101801.69;4912513;29;20072;-75
2021/03/08 07:41:07;;;;;;;;;;;;;;;1.26;96.77;101807.56;4911214;29;20095;-75
2021/03/08 07:43:32;;;;;;;9.43;3.58;;;;;;;1.38;94.54;101802.81;4912298;29;19915;-75
2021/03/08 07:45:58;;;;;;;10.80;3.50;;;;;;;1.83;93.79;101805.44;4909526;28;20043;-75
2021/03/08 07:48:23;;;;;;;5.88;2.03;;;;;;;2.00;93.42;101805.16;4943271;28;20043;-76
2021/03/08 07:50:50;;;;;;;7.07;1.88;;;;;;;2.15;91.65;101806.97;4939744;29;20028;-76
2021/03/08 07:53:34;;;;;;;4.00;1.90;;;;;;;2.45;90.98;101812.19;4947221;29;20104;-76
2021/03/08 07:56:02;;;;;;;6.95;2.10;;;;;;;2.73;89.89;101822.16;4941214;28;20042;-75
2021/03/08 07:58:32;;;;;;;4.95;1.70;;;;;;;3.17;88.87;101817.69;4953454;28;20039;-75
2021/03/08 08:01:00;;;;;;;3.78;1.90;;;;;;;3.19;87.42;101814.75;4944851;28;20027;-76
2021/03/08 08:03:26;;;;;;;4.00;1.73;;;;;;;3.44;85.82;101811.88;4941854;29;20079;-75
2021/03/08 08:05:54;;;;;;;6.30;1.75;;;;;;;3.78;85.48;101819.84;4941623;28;20569;-75
2021/03/08 08:08:21;;;;;;;4.32;1.70;;;;;;;3.98;85.27;101822.34;4942309;28;20444;-75
2021/03/08 08:10:52;;;;;;;5.95;1.50;;;;;;;4.17;82.84;101815.19;4940459;28;20094;-75
2021/03/08 08:13:18;;;;;;;6.03;1.30;;;;;;;4.52;81.98;101814.81;4944339;28;20042;-76
2021/03/08 08:15:46;;;;;;;3.53;1.02;;;;;;;4.68;79.74;101815.41;4942986;28;20118;-76
2021/03/08 08:18:15;;;;;;;4.63;1.17;;;;;;;4.85;80.61;101807.72;4944950;28;20043;-75
2021/03/08 08:20:41;;;;;;;4.07;1.38;;;;;;;5.22;80.51;101813.84;4948236;28;20038;-75
2021/03/08 08:23:07;;;;;;;3.53;1.50;;;;;;;5.47;79.64;101810.78;4948143;29;20658;-75
2021/03/08 08:25:33;;;;;;;5.38;1.15;;;;;;;5.89;78.25;101817.06;4946885;28;20117;-76
2021/03/08 08:28:00;;;;;;;4.25;1.42;;;;;;;5.79;76.68;101812.66;4944882;29;20051;-76
2021/03/08 08:30:27;;;;;;;3.65;1.40;;;;;;;5.79;73.97;101814.56;4948190;28;20539;-77
2021/03/08 08:32:54;;;;;;;6.22;1.38;;;;;;;6.00;74.12;101815.81;4955070;28;20041;-76
2021/03/08 08:35:22;;;;;;;5.30;1.38;;;;;;;6.39;74.95;101818.78;4952555;28;20515;-77
2021/03/08 08:38:07;;;;;;;4.50;1.50;;;;;;;6.74;73.84;101810.03;4952624;29;20039;-77
2021/03/08 08:40:34;;;;;;;3.83;1.50;;;;;;;6.80;71.31;101816.88;4967885;28;20031;-77
2021/03/08 08:43:15;;;;;;;4.00;1.52;;;;;;;7.16;71.37;101816.91;4954051;28;20087;-77
2021/03/08 08:45:49;;;;;;;4.97;1.63;;;;;;;7.03;69.46;101817.69;4952335;28;20027;-75
2021/03/08 08:48:15;;;;;;;4.97;1.90;;;;;;;7.32;69.77;101818.91;4956218;28;20046;-77
2021/03/08 08:50:48;;;;;;;10.00;2.95;;;;;;;7.60;68.26;101824.94;4953521;28;20038;-77
2021/03/08 08:53:37;;;;;;;8.20;2.50;;;;;;;7.65;67.50;101819.44;4950176;28;20039;-76
2021/03/08 08:56:04;;;;;;;9.90;1.50;;;;;;;7.82;67.90;101816.88;4946851;28;20040;-77
2021/03/08 08:58:34;;;;;;;6.00;1.42;;;;;;;8.04;65.03;101810.66;4944976;28;20047;-76
2021/03/08 09:01:16;;;;;;;4.20;1.00;;;;;;;8.56;63.84;101817.03;4950075;28;20043;-75
2021/03/08 09:04:03;;;;;;;4.72;1.20;;;;;;;8.54;63.66;101805.81;4943570;28;20455;-78
2021/03/08 09:06:54;;;;;;;4.50;1.27;;;;;;;8.70;60.51;101817.72;4948477;29;20046;-77
2021/03/08 09:09:45;;;;;;;3.33;1.25;;;;;;;8.75;56.74;101815.66;4959715;28;20039;-77
2021/03/08 09:12:38;;;;;;;3.75;1.10;;;;;;;8.11;60.30;101808.31;4955535;28;20032;-77
2021/03/08 09:15:05;;;;;;;4.47;1.20;;;;;;;8.55;57.44;101813.59;4961693;28;20069;-75
2021/03/08 09:17:39;;;;;;;3.58;1.23;;;;;;;8.75;56.68;101809.53;4943432;28;20102;-74
2021/03/08 09:20:06;;;;;;;3.53;0.88;;;;;;;8.23;53.09;101821.19;4957398;28;20508;-77
2021/03/08 09:22:33;;;;;;;2.22;0.77;;;;;;;7.92;52.46;101813.13;4941103;28;20038;-77
2021/03/08 09:25:28;;;;;;;1.58;0.70;;;;;;;7.54;53.23;101820.00;4943830;28;20043;-77
2021/03/08 09:28:10;;;;;;;3.35;0.90;;;;;;;8.47;54.21;101822.41;4953405;28;20058;-74
2021/03/08 09:30:40;;;;;;;1.60;0.95;;;;;;;7.99;52.61;101821.53;4946997;29;20506;-77
2021/03/08 09:33:09;;;;;;;1.35;0.80;;;;;;;8.10;54.82;101826.34;4926212;28;20043;-76
2021/03/08 09:35:37;;;;;;;3.15;0.90;;;;;;;9.19;52.60;101828.06;4940262;28;20027;-76
2021/03/08 09:38:06;;;;;;;3.65;1.17;;;;;;;8.88;50.47;101814.72;4942088;28;20043;-77
2021/03/08 09:40:35;;;;;;;3.70;0.70;;;;;;;9.36;47.79;101819.19;4944450;29;20350;-76
2021/03/08 09:43:02;;;;;;;2.35;1.08;;;;;;;9.88;49.49;101829.56;4937246;28;20500;-77
2021/03/08 09:45:32;;;;;;;4.93;1.00;;;;;;;9.73;47.95;101831.97;4941114;28;20027;-76
2021/03/08 09:47:59;;;;;;;2.25;0.70;;;;;;;9.98;45.07;101818.44;4947488;28;20027;-76
2021/03/08 09:50:26;;;;;;;4.57;1.20;;;;;;;9.99;47.08;101819.22;4951517;28;20030;-76
2021/03/08 09:52:55;;;;;;;2.33;0.80;;;;;;;10.43;46.86;101815.28;4957764;28;20035;-77
2021/03/08 09:55:30;;;;;;;3.85;1.00;;;;;;;9.68;47.82;101818.66;4941665;29;20126;-76
2021/03/08 09:57:56;;;;;;;2.53;0.88;;;;;;;9.93;47.28;101820.50;4947238;29;20034;-77
2021/03/08 10:00:28;;;;;;;1.70;0.73;;;;;;;10.29;48.12;101825.47;4938571;28;20408;-77
2021/03/08 10:03:12;;;;;;;3.55;0.98;;;;;;;10.54;46.86;101829.94;4941492;28;20046;-76
2021/03/08 10:05:53;;;;;;;1.85;0.90;;;;;;;10.51;46.44;101827.91;4938608;28;20655;-77
2021/03/08 10:08:19;;;;;;;2.22;0.82;;;;;;;10.61;44.49;101833.72;4945176;29;20597;-77
2021/03/08 10:10:51;;;;;;;2.45;0.80;;;;;;;10.78;45.62;101839.00;4941686;28;20122;-77
2021/03/08 10:13:18;;;;;;;2.05;0.70;;;;;;;10.98;44.10;101829.34;4956239;28;20559;-77
2021/03/08 10:15:52;;;;;;;2.67;0.73;;;;;;;11.07;42.79;101837.38;4945833;28;20126;-76
2021/03/08 10:18:23;;;;;;;1.63;0.73;;;;;;;10.77;41.57;101829.34;4941932;28;20489;-75
2021/03/08 10:20:50;;;;;;;3.75;0.63;;;;;;;10.66;40.14;101828.16;4945687;28;20027;-77
2021/03/08 10:23:21;;;;;;;3.70;0.80;;;;;;;10.62;40.66;101824.53;4951724;28;20047;-75
2021/03/08 10:25:47;;;;;;;2.72;0.90;;;;;;;10.78;40.81;101836.28;4946241;28;20063;-77
2021/03/08 10:28:13;;;;;;;3.75;0.57;;;;;;;10.82;39.33;101837.22;4955649;28;20034;-76
2021/03/08 10:30:39;;;;;;;3.33;0.70;;;;;;;10.87;40.24;101825.47;4954322;28;20489;-76
2021/03/08 10:33:07;;;;;;;1.08;0.75;;;;;;;10.71;40.67;101827.94;4953961;28;20035;-76
2021/03/08 10:35:55;;;;;;;3.95;0.50;;;;;;;10.99;39.20;101825.56;4951436;28;20035;-74
2021/03/08 10:38:27;;;;;;;0.57;0.45;;;;;;;11.06;37.69;101830.41;4956420;28;20121;-76
2021/03/08 10:40:57;;;;;;;1.88;0.60;;;;;;;10.88;38.40;101832.44;4954539;29;20035;-76
2021/03/08 10:43:24;;;;;;;1.13;0.65;;;;;;;10.74;39.28;101832.66;4970431;28;20035;-76
2021/03/08 10:45:52;;;;;;;0.70;0.50;;;;;;;10.85;38.70;101830.41;4945894;28;20109;-76
2021/03/08 10:48:18;;;;;;;2.90;0.60;;;;;;;10.79;38.97;101827.09;4948277;28;20031;-77
2021/03/08 10:50:47;;;;;;;4.75;0.60;;;;;;;10.75;38.56;101831.56;4944460;28;20046;-77
2021/03/08 10:53:16;;;;;;;1.30;0.70;;;;;;;10.69;39.45;101827.47;4956451;28;20031;-77
2021/03/08 10:55:41;;;;;;;4.47;0.70;;;;;;;10.87;40.41;101834.34;4954547;28;20404;-77
2021/03/08 10:58:06;;;;;;;1.75;0.47;;;;;;;10.93;38.99;101826.88;4946811;28;20042;-74
2021/03/08 11:00:33;;;;;;;0.90;0.68;;;;;;;10.94;38.24;101833.81;4953796;29;20042;-74
2021/03/08 11:03:00;;;;;;;1.17;0.60;;;;;;;9.74;38.87;101833.53;4956733;28;20035;-74
2021/03/08 11:05:26;;;;;;;2.17;0.63;;;;;;;10.38;38.96;101826.22;4953940;28;20035;-76
2021/03/08 11:07:52;;;;;;;1.77;0.50;;;;;;;10.39;39.64;101834.00;4964351;28;20062;-76
2021/03/08 11:10:30;;;;;;;1.40;0.70;;;;;;;9.53;39.73;101838.00;4943037;28;20504;-76
2021/03/08 11:13:00;;;;;;;2.47;0.60;;;;;;;9.63;39.96;101841.16;4944006;29;20477;-76
2021/03/08 11:15:26;;;;;;;2.97;0.57;;;;;;;10.17;39.81;101830.75;4947139;28;20035;-76
2021/03/08 11:17:51;;;;;;;0.75;0.50;;;;;;;10.65;39.90;101826.56;4948124;28;20067;-77
2021/03/08 11:20:19;;;;;;;0.70;0.40;;;;;;;10.66;38.18;101828.16;4941677;29;20059;-76
2021/03/08 11:22:49;;;;;;;2.83;0.65;;;;;;;10.38;37.50;101824.31;4949029;29;20035;-77
2021/03/08 11:25:28;;;;;;;2.55;0.60;;;;;;;10.35;36.63;101824.97;4945686;28;20055;-77
2021/03/08 11:27:55;;;;;;;1.33;0.38;;;;;;;10.62;38.04;101827.22;4945612;28;20043;-76
2021/03/08 11:30:21;;;;;;;4.18;0.70;;;;;;;10.20;37.56;101830.13;4948257;29;20086;-76
2021/03/08 11:32:52;;;;;;;1.50;0.50;;;;;;;10.34;38.75;101826.09;4945872;29;20039;-76
2021/03/08 11:35:24;;;;;;;1.43;0.70;;;;;;;10.35;36.64;101822.28;4947787;29;20027;-76
2021/03/08 11:37:52;;;;;;;3.95;0.60;;;;;;;9.78;37.19;101821.00;4951774;28;20050;-76
2021/03/08 11:40:22;;;;;;;1.08;0.60;;;;;;;9.91;37.94;101818.13;4949009;28;20035;-76
2021/03/08 11:42:49;;;;;;;1.52;0.73;;;;;;;10.16;37.15;101816.53;4944103;28;20054;-76